Time;durP1;ratioP1;P1;durP2;ratioP2;P2;SDS_P1;SDS_P2;PMS_P1;PMS_P2;Temp;Humidity;BMP_temperature;BMP_pressure;BME280_temperature;BME280_humidity;BME280_pressure;Samples;Min_cycle;Max_cycle;Signal;HPM_P1;HPM_P2
2022/03/04 00:00:36;;;;;;;267.92;131.63;;;;;;;;;;5087043;28;20038;-66
2022/03/04 00:03:01;;;;;;;320.17;145.75;;;;;;;;;;5072328;28;20031;-65
2022/03/04 00:05:26;;;;;;;268.45;128.13;;;;;;;;;;5086602;28;20051;-68
2022/03/04 00:07:52;;;;;;;221.70;107.00;;;;;;;;;;5098595;28;20423;-65
2022/03/04 00:10:17;;;;;;;217.07;103.63;;;;;;;;;;5097659;28;20043;-65
2022/03/04 00:12:43;;;;;;;229.43;110.55;;;;;;;;;;5087947;28;20497;-66
2022/03/04 00:15:09;;;;;;;270.52;126.07;;;;;;;;;;5090073;28;20043;-67
2022/03/04 00:17:34;;;;;;;246.98;111.47;;;;;;;;;;5094059;28;20020;-67
2022/03/04 00:20:00;;;;;;;279.15;121.85;;;;;;;;;;5093432;28;20031;-67
2022/03/04 00:22:25;;;;;;;281.02;129.93;;;;;;;;;;5095992;28;20027;-66
2022/03/04 00:24:51;;;;;;;307.05;142.27;;;;;;;;;;5096737;28;20068;-66
2022/03/04 00:27:16;;;;;;;238.85;125.72;;;;;;;;;;5094865;28;20035;-70
2022/03/04 00:29:41;;;;;;;165.60;83.30;;;;;;;;;;5087771;27;20419;-67
2022/03/04 00:32:07;;;;;;;193.07;86.05;;;;;;;;;;5097154;28;20027;-69
2022/03/04 00:34:32;;;;;;;164.90;73.38;;;;;;;;;;5093190;28;20084;-67
2022/03/04 00:36:58;;;;;;;279.95;117.32;;;;;;;;;;5094391;28;20026;-65
2022/03/04 00:39:23;;;;;;;257.60;99.30;;;;;;;;;;5097885;28;21102;-69
2022/03/04 00:41:48;;;;;;;227.20;95.40;;;;;;;;;;5090283;28;20027;-66
2022/03/04 00:44:14;;;;;;;273.98;120.82;;;;;;;;;;5092557;28;20053;-66
2022/03/04 00:46:39;;;;;;;270.83;119.97;;;;;;;;;;5096124;28;20023;-66
2022/03/04 00:49:05;;;;;;;186.40;84.43;;;;;;;;;;5097396;28;20136;-68
2022/03/04 00:51:30;;;;;;;307.45;130.88;;;;;;;;;;5096400;28;20080;-66
2022/03/04 00:53:56;;;;;;;303.70;134.30;;;;;;;;;;5093562;28;20027;-67
2022/03/04 00:56:21;;;;;;;304.25;133.43;;;;;;;;;;5095779;28;20042;-69
2022/03/04 00:58:46;;;;;;;503.13;250.10;;;;;;;;;;5095561;28;20034;-68
2022/03/04 01:01:12;;;;;;;368.48;162.63;;;;;;;;;;5098836;28;20024;-70
2022/03/04 01:03:38;;;;;;;257.38;115.63;;;;;;;;;;5093772;28;20407;-69
2022/03/04 01:06:04;;;;;;;185.55;82.18;;;;;;;;;;5090913;28;20579;-65
2022/03/04 01:08:29;;;;;;;125.00;57.75;;;;;;;;;;5088068;27;20458;-67
2022/03/04 01:10:55;;;;;;;75.53;38.05;;;;;;;;;;5092360;28;20032;-68
2022/03/04 01:13:21;;;;;;;210.43;87.90;;;;;;;;;;5091854;28;20040;-66
2022/03/04 01:15:46;;;;;;;174.93;82.22;;;;;;;;;;5097081;28;20035;-67
2022/03/04 01:18:12;;;;;;;178.27;84.13;;;;;;;;;;5097713;28;20020;-70
2022/03/04 01:20:37;;;;;;;226.15;102.35;;;;;;;;;;5095674;28;20055;-69
2022/03/04 01:23:03;;;;;;;202.73;96.20;;;;;;;;;;5092230;28;20042;-65
2022/03/04 01:25:28;;;;;;;214.20;98.53;;;;;;;;;;5096132;28;20430;-69
2022/03/04 01:27:54;;;;;;;170.18;79.30;;;;;;;;;;5096501;28;20759;-65
2022/03/04 01:30:19;;;;;;;177.43;78.97;;;;;;;;;;5093573;28;20038;-66
2022/03/04 01:32:45;;;;;;;208.00;95.45;;;;;;;;;;5089157;28;20389;-66
2022/03/04 01:35:11;;;;;;;191.95;86.78;;;;;;;;;;5093554;28;20019;-67
2022/03/04 01:37:36;;;;;;;242.48;108.78;;;;;;;;;;5094295;28;21309;-67
2022/03/04 01:40:03;;;;;;;248.70;114.82;;;;;;;;;;5087078;27;20020;-66
2022/03/04 01:42:28;;;;;;;444.65;208.25;;;;;;;;;;5095188;27;20938;-66
2022/03/04 01:44:54;;;;;;;336.80;144.40;;;;;;;;;;5097179;28;20027;-65
2022/03/04 01:47:19;;;;;;;282.92;124.88;;;;;;;;;;5094177;28;20461;-66
2022/03/04 01:49:44;;;;;;;249.00;112.00;;;;;;;;;;5095691;27;20028;-65
2022/03/04 01:52:10;;;;;;;183.38;85.25;;;;;;;;;;5093989;28;20439;-66
2022/03/04 01:54:35;;;;;;;186.35;83.72;;;;;;;;;;5095055;28;20689;-67
2022/03/04 01:57:01;;;;;;;183.85;84.75;;;;;;;;;;5096928;28;20088;-67
2022/03/04 01:59:27;;;;;;;116.93;55.63;;;;;;;;;;5095424;28;20042;-68
2022/03/04 02:01:52;;;;;;;144.20;71.85;;;;;;;;;;5092839;28;20034;-65
2022/03/04 02:04:22;;;;;;;89.18;44.15;;;;;;;;;;5094135;28;20027;-65
2022/03/04 02:06:47;;;;;;;56.05;30.10;;;;;;;;;;5094105;28;20020;-66
2022/03/04 02:09:13;;;;;;;86.53;45.38;;;;;;;;;;5094782;28;20020;-66
2022/03/04 02:11:41;;;;;;;107.68;52.40;;;;;;;;;;5075967;28;20031;-65
2022/03/04 02:14:07;;;;;;;188.00;80.87;;;;;;;;;;5092721;28;20035;-71
2022/03/04 02:16:36;;;;;;;128.93;57.63;;;;;;;;;;5087273;28;20051;-65
2022/03/04 02:19:02;;;;;;;105.50;50.80;;;;;;;;;;5077860;28;20155;-66
2022/03/04 02:21:27;;;;;;;118.05;55.08;;;;;;;;;;5094218;28;20102;-70
2022/03/04 02:23:52;;;;;;;110.75;54.70;;;;;;;;;;5090109;28;20028;-68
2022/03/04 02:26:18;;;;;;;131.73;68.38;;;;;;;;;;5091080;28;20038;-67
2022/03/04 02:28:44;;;;;;;149.23;67.82;;;;;;;;;;5095956;28;20028;-66
2022/03/04 02:31:13;;;;;;;118.03;58.65;;;;;;;;;;5095821;28;20016;-70
2022/03/04 02:33:38;;;;;;;140.30;65.90;;;;;;;;;;5093672;28;20039;-67
2022/03/04 02:36:03;;;;;;;120.00;58.15;;;;;;;;;;5097785;28;20040;-68
2022/03/04 02:38:29;;;;;;;139.20;68.78;;;;;;;;;;5095997;28;20023;-66
2022/03/04 02:40:54;;;;;;;137.45;66.63;;;;;;;;;;5098035;28;20020;-67
2022/03/04 02:43:19;;;;;;;113.22;51.78;;;;;;;;;;5093204;28;20032;-66
2022/03/04 02:45:45;;;;;;;108.57;51.78;;;;;;;;;;5094734;28;20028;-66
2022/03/04 02:48:10;;;;;;;168.15;79.18;;;;;;;;;;5097509;28;20098;-69
2022/03/04 02:50:35;;;;;;;96.13;46.85;;;;;;;;;;5095703;28;20034;-66
2022/03/04 02:53:01;;;;;;;89.47;44.15;;;;;;;;;;5097460;28;20024;-70
2022/03/04 02:55:26;;;;;;;80.28;41.97;;;;;;;;;;5098257;28;20649;-68
2022/03/04 02:57:51;;;;;;;76.22;36.55;;;;;;;;;;5100705;28;20038;-67
2022/03/04 03:00:17;;;;;;;86.05;43.92;;;;;;;;;;5101042;28;20023;-65
2022/03/04 03:02:43;;;;;;;89.18;45.63;;;;;;;;;;5100868;28;20088;-68
2022/03/04 03:05:09;;;;;;;100.15;49.35;;;;;;;;;;5101322;28;20338;-66
2022/03/04 03:07:34;;;;;;;71.50;36.83;;;;;;;;;;5099568;28;20372;-66
2022/03/04 03:10:00;;;;;;;85.25;44.80;;;;;;;;;;5098860;28;20024;-70
2022/03/04 03:12:26;;;;;;;81.38;41.13;;;;;;;;;;5099132;28;20051;-68
2022/03/04 03:14:51;;;;;;;95.82;47.17;;;;;;;;;;5099571;28;20439;-71
2022/03/04 03:17:16;;;;;;;116.20;52.78;;;;;;;;;;5100419;28;20073;-66
2022/03/04 03:19:42;;;;;;;85.93;42.83;;;;;;;;;;5100795;28;20028;-66
2022/03/04 03:22:07;;;;;;;74.35;37.67;;;;;;;;;;5098633;28;20453;-67
2022/03/04 03:24:32;;;;;;;68.47;34.55;;;;;;;;;;5082510;28;20343;-67
2022/03/04 03:26:58;;;;;;;87.18;43.33;;;;;;;;;;5098410;28;20027;-65
2022/03/04 03:29:23;;;;;;;97.72;46.28;;;;;;;;;;5098427;28;20434;-66
2022/03/04 03:31:48;;;;;;;98.15;47.13;;;;;;;;;;5098313;28;20084;-67
2022/03/04 03:34:14;;;;;;;100.40;48.55;;;;;;;;;;5096868;28;20432;-70
2022/03/04 03:36:39;;;;;;;121.63;55.38;;;;;;;;;;5099629;28;20447;-67
2022/03/04 03:39:05;;;;;;;100.55;50.40;;;;;;;;;;5093433;28;20015;-66
2022/03/04 03:41:30;;;;;;;72.15;36.58;;;;;;;;;;5097497;28;21123;-69
2022/03/04 03:43:55;;;;;;;75.22;37.63;;;;;;;;;;5099715;28;20031;-67
2022/03/04 03:46:21;;;;;;;74.90;39.65;;;;;;;;;;5090164;28;20024;-66
2022/03/04 03:48:46;;;;;;;68.93;35.58;;;;;;;;;;5097960;28;20030;-67
2022/03/04 03:51:11;;;;;;;69.88;33.53;;;;;;;;;;5099273;28;20066;-66
2022/03/04 03:53:37;;;;;;;67.15;34.10;;;;;;;;;;5099489;28;20465;-67
2022/03/04 03:56:03;;;;;;;63.35;33.65;;;;;;;;;;5098131;28;20052;-69
2022/03/04 03:58:28;;;;;;;63.45;29.10;;;;;;;;;;5098920;28;20031;-67
2022/03/04 04:00:55;;;;;;;85.25;38.05;;;;;;;;;;5099061;28;20037;-66
2022/03/04 04:03:20;;;;;;;89.90;41.50;;;;;;;;;;5100481;28;20077;-65
2022/03/04 04:05:45;;;;;;;86.22;40.70;;;;;;;;;;5096916;28;20035;-66
2022/03/04 04:08:11;;;;;;;63.70;32.95;;;;;;;;;;5098980;28;20019;-66
2022/03/04 04:10:36;;;;;;;59.22;29.55;;;;;;;;;;5095832;28;20016;-68
2022/03/04 04:13:01;;;;;;;60.78;30.75;;;;;;;;;;5076373;28;20105;-66
2022/03/04 04:15:26;;;;;;;74.22;41.00;;;;;;;;;;5099316;28;20024;-66
2022/03/04 04:17:52;;;;;;;70.22;33.85;;;;;;;;;;5098929;28;20032;-69
2022/03/04 04:20:17;;;;;;;66.40;35.03;;;;;;;;;;5083113;28;20100;-68
2022/03/04 04:22:43;;;;;;;48.25;25.90;;;;;;;;;;5097669;28;20401;-69
2022/03/04 04:25:08;;;;;;;56.00;30.30;;;;;;;;;;5099158;28;21144;-70
2022/03/04 04:27:33;;;;;;;83.13;42.13;;;;;;;;;;5097767;28;20023;-66
2022/03/04 04:29:59;;;;;;;75.60;38.00;;;;;;;;;;5098468;28;20473;-67
2022/03/04 04:32:24;;;;;;;80.30;38.95;;;;;;;;;;5098369;28;20468;-66
2022/03/04 04:34:50;;;;;;;59.53;28.90;;;;;;;;;;5098891;28;20034;-67
2022/03/04 04:37:15;;;;;;;61.33;30.45;;;;;;;;;;5100009;28;20039;-68
2022/03/04 04:39:40;;;;;;;54.63;28.15;;;;;;;;;;5088242;28;20050;-65
2022/03/04 04:42:06;;;;;;;51.45;25.45;;;;;;;;;;5093670;28;20024;-71
2022/03/04 04:44:31;;;;;;;56.42;26.23;;;;;;;;;;5088284;28;20118;-69
2022/03/04 04:46:57;;;;;;;61.47;29.58;;;;;;;;;;5089255;28;20079;-66
2022/03/04 04:49:23;;;;;;;67.68;31.15;;;;;;;;;;5086416;28;20114;-70
2022/03/04 04:51:49;;;;;;;57.80;27.48;;;;;;;;;;5085074;28;20030;-65
2022/03/04 04:54:14;;;;;;;65.68;30.23;;;;;;;;;;5088618;28;20031;-67
2022/03/04 04:56:39;;;;;;;78.82;36.67;;;;;;;;;;5096908;28;20084;-66
2022/03/04 04:59:05;;;;;;;111.95;50.15;;;;;;;;;;5098523;28;20058;-71
2022/03/04 05:01:31;;;;;;;118.82;49.00;;;;;;;;;;5096405;28;20346;-71
2022/03/04 05:03:56;;;;;;;78.35;39.88;;;;;;;;;;5098016;28;20030;-67
2022/03/04 05:06:21;;;;;;;81.70;35.10;;;;;;;;;;5099283;28;20035;-65
2022/03/04 05:08:47;;;;;;;51.08;25.45;;;;;;;;;;5096899;28;20119;-68
2022/03/04 05:11:12;;;;;;;88.82;49.85;;;;;;;;;;5092584;28;20039;-67
2022/03/04 05:13:38;;;;;;;70.15;38.63;;;;;;;;;;5092064;28;20152;-67
2022/03/04 05:16:03;;;;;;;57.90;31.27;;;;;;;;;;5088264;28;20423;-66
2022/03/04 05:18:29;;;;;;;51.10;29.55;;;;;;;;;;5095295;28;20032;-67
2022/03/04 05:20:54;;;;;;;61.80;31.67;;;;;;;;;;5095364;28;20024;-67
2022/03/04 05:26:03;;;;;;;59.03;28.70;;;;;;;;;;5096368;28;20062;-67
2022/03/04 05:28:29;;;;;;;112.20;50.25;;;;;;;;;;5097906;28;20426;-70
2022/03/04 05:30:54;;;;;;;121.82;59.45;;;;;;;;;;5094452;28;20505;-67
2022/03/04 05:33:19;;;;;;;117.60;58.53;;;;;;;;;;5087617;28;20024;-67
2022/03/04 05:35:45;;;;;;;92.72;44.25;;;;;;;;;;5097920;28;20374;-66
2022/03/04 05:38:10;;;;;;;117.40;60.47;;;;;;;;;;5097485;28;20106;-67
2022/03/04 05:40:35;;;;;;;190.70;96.93;;;;;;;;;;5094347;28;20027;-65
2022/03/04 05:43:01;;;;;;;193.05;94.20;;;;;;;;;;5090260;28;20023;-66
2022/03/04 05:45:26;;;;;;;183.07;94.97;;;;;;;;;;5095615;28;20440;-65
2022/03/04 05:47:51;;;;;;;192.63;95.97;;;;;;;;;;5092980;28;20023;-65
2022/03/04 05:50:17;;;;;;;173.35;87.40;;;;;;;;;;5086091;28;20027;-68
2022/03/04 05:52:42;;;;;;;155.60;76.35;;;;;;;;;;5087085;28;20533;-66
2022/03/04 05:55:08;;;;;;;144.93;70.95;;;;;;;;;;5084810;28;21153;-65
2022/03/04 05:57:33;;;;;;;167.07;82.18;;;;;;;;;;5087922;28;20024;-67
2022/03/04 05:59:59;;;;;;;217.43;109.22;;;;;;;;;;5085586;28;20760;-67
2022/03/04 06:02:26;;;;;;;193.88;96.43;;;;;;;;;;5088570;28;20020;-70
2022/03/04 06:04:51;;;;;;;212.93;98.60;;;;;;;;;;5086770;28;20031;-63
2022/03/04 06:07:17;;;;;;;179.15;88.88;;;;;;;;;;5089311;28;20057;-68
2022/03/04 06:09:42;;;;;;;145.57;75.47;;;;;;;;;;5085136;28;20023;-64
2022/03/04 06:12:08;;;;;;;177.23;85.93;;;;;;;;;;5087701;28;20608;-67
2022/03/04 06:14:33;;;;;;;186.75;88.10;;;;;;;;;;5096275;28;20032;-65
2022/03/04 06:16:58;;;;;;;174.32;85.78;;;;;;;;;;5097341;28;20024;-64
2022/03/04 06:19:24;;;;;;;237.80;120.40;;;;;;;;;;5097979;28;20115;-65
2022/03/04 06:21:49;;;;;;;196.05;103.45;;;;;;;;;;5096859;28;20343;-66
2022/03/04 06:24:15;;;;;;;168.50;78.28;;;;;;;;;;5094350;28;20347;-65
2022/03/04 06:26:40;;;;;;;149.50;71.10;;;;;;;;;;5087808;28;20063;-65
2022/03/04 06:29:06;;;;;;;126.85;58.30;;;;;;;;;;5085879;28;20107;-69
2022/03/04 06:31:31;;;;;;;148.20;73.80;;;;;;;;;;5091176;28;20100;-65
2022/03/04 06:33:57;;;;;;;131.02;64.82;;;;;;;;;;5091922;28;20066;-62
2022/03/04 06:36:22;;;;;;;171.70;79.07;;;;;;;;;;5101014;28;20034;-63
2022/03/04 06:38:47;;;;;;;203.23;96.15;;;;;;;;;;5100282;28;20467;-63
2022/03/04 06:41:14;;;;;;;273.98;125.65;;;;;;;;;;5101613;28;20046;-66
2022/03/04 06:43:40;;;;;;;272.55;123.50;;;;;;;;;;5097378;28;20024;-68
2022/03/04 06:46:06;;;;;;;283.52;125.30;;;;;;;;;;5089179;28;20053;-66
2022/03/04 06:48:32;;;;;;;167.65;73.95;;;;;;;;;;5090236;28;20145;-71
2022/03/04 06:50:58;;;;;;;127.07;66.85;;;;;;;;;;5093307;28;20020;-66
2022/03/04 06:53:24;;;;;;;177.60;87.80;;;;;;;;;;5099350;28;20016;-65
2022/03/04 06:55:49;;;;;;;148.55;74.75;;;;;;;;;;5098957;28;20031;-70
2022/03/04 06:58:16;;;;;;;170.10;85.65;;;;;;;;;;5101688;28;20386;-68
2022/03/04 07:00:41;;;;;;;155.35;78.85;;;;;;;;;;5100901;28;20027;-66
2022/03/04 07:03:07;;;;;;;157.23;79.72;;;;;;;;;;5097879;28;20098;-66
2022/03/04 07:05:33;;;;;;;147.90;75.05;;;;;;;;;;5098480;28;20404;-65
2022/03/04 07:07:58;;;;;;;186.80;92.60;;;;;;;;;;5100562;28;20023;-67
2022/03/04 07:10:24;;;;;;;150.18;83.72;;;;;;;;;;5097979;28;20032;-68
2022/03/04 07:12:49;;;;;;;142.75;77.50;;;;;;;;;;5102084;28;20695;-66
2022/03/04 07:15:14;;;;;;;136.15;70.55;;;;;;;;;;5101596;28;20073;-64
2022/03/04 07:17:40;;;;;;;208.80;102.50;;;;;;;;;;5096550;28;20094;-69
2022/03/04 07:20:06;;;;;;;254.00;121.65;;;;;;;;;;5099792;28;20040;-67
2022/03/04 07:22:31;;;;;;;419.30;184.38;;;;;;;;;;5100038;28;20042;-67
2022/03/04 07:24:57;;;;;;;156.32;80.55;;;;;;;;;;5100968;28;20427;-66
2022/03/04 07:27:22;;;;;;;71.35;37.95;;;;;;;;;;5101231;28;20016;-68
2022/03/04 07:29:47;;;;;;;82.13;45.63;;;;;;;;;;5103276;28;20063;-70
2022/03/04 07:32:13;;;;;;;107.55;50.60;;;;;;;;;;5098860;28;20077;-67
2022/03/04 07:34:38;;;;;;;85.40;46.35;;;;;;;;;;5097201;28;20024;-66
2022/03/04 07:37:05;;;;;;;68.40;38.38;;;;;;;;;;5099996;28;20024;-66
2022/03/04 07:39:30;;;;;;;67.65;39.33;;;;;;;;;;5097597;28;20027;-67
2022/03/04 07:41:55;;;;;;;72.32;48.97;;;;;;;;;;5099171;28;20080;-67
2022/03/04 07:44:21;;;;;;;61.67;38.50;;;;;;;;;;5097270;28;21120;-67
2022/03/04 07:46:47;;;;;;;51.00;31.50;;;;;;;;;;5099043;28;20035;-66
2022/03/04 07:49:13;;;;;;;58.85;36.08;;;;;;;;;;5100280;28;20347;-67
2022/03/04 07:51:38;;;;;;;97.97;59.00;;;;;;;;;;5099095;28;20104;-67
2022/03/04 07:54:04;;;;;;;64.18;38.78;;;;;;;;;;5096415;28;20024;-70
2022/03/04 07:56:29;;;;;;;50.00;30.73;;;;;;;;;;5099682;28;20031;-68
2022/03/04 07:58:54;;;;;;;47.25;29.77;;;;;;;;;;5100286;28;20023;-66
2022/03/04 08:01:20;;;;;;;68.03;35.78;;;;;;;;;;5097018;28;20028;-70
2022/03/04 08:03:46;;;;;;;52.28;29.60;;;;;;;;;;5101244;28;20031;-68
2022/03/04 08:06:12;;;;;;;57.88;33.13;;;;;;;;;;5100853;28;20404;-68
2022/03/04 08:08:38;;;;;;;123.35;58.17;;;;;;;;;;5099947;28;20027;-66
2022/03/04 08:11:03;;;;;;;73.13;37.92;;;;;;;;;;5099872;28;20032;-68
2022/03/04 08:13:28;;;;;;;76.22;42.25;;;;;;;;;;5096067;28;20125;-67
2022/03/04 08:15:54;;;;;;;57.72;33.35;;;;;;;;;;5099266;28;20315;-69
2022/03/04 08:18:19;;;;;;;49.13;28.35;;;;;;;;;;5098302;28;20031;-66
2022/03/04 08:20:45;;;;;;;47.63;28.55;;;;;;;;;;5098469;28;20019;-68
2022/03/04 08:23:11;;;;;;;35.13;21.05;;;;;;;;;;5098838;28;20019;-66
2022/03/04 08:25:37;;;;;;;24.45;16.00;;;;;;;;;;5097234;28;20024;-67
2022/03/04 08:28:03;;;;;;;30.60;19.50;;;;;;;;;;5097258;28;20019;-67
2022/03/04 08:30:28;;;;;;;37.40;26.20;;;;;;;;;;5098714;28;20024;-68
2022/03/04 08:32:53;;;;;;;32.13;22.58;;;;;;;;;;5098233;28;20028;-66
2022/03/04 08:35:19;;;;;;;27.20;17.35;;;;;;;;;;5098514;28;20034;-68
2022/03/04 08:37:44;;;;;;;28.02;19.35;;;;;;;;;;5100063;28;20027;-68
2022/03/04 08:40:10;;;;;;;33.72;21.15;;;;;;;;;;5099122;28;20032;-66
2022/03/04 08:42:36;;;;;;;26.90;17.88;;;;;;;;;;5093747;27;20388;-67
2022/03/04 08:45:02;;;;;;;28.33;19.95;;;;;;;;;;5087779;28;20062;-73
2022/03/04 08:47:28;;;;;;;27.80;19.20;;;;;;;;;;5087267;28;20078;-72
2022/03/04 08:49:53;;;;;;;28.05;18.38;;;;;;;;;;5088805;28;20530;-70
2022/03/04 08:52:18;;;;;;;22.02;16.55;;;;;;;;;;5086826;28;20032;-68
2022/03/04 08:54:44;;;;;;;42.40;23.77;;;;;;;;;;5088955;28;20042;-67
2022/03/04 08:57:09;;;;;;;23.52;15.43;;;;;;;;;;5087083;28;20039;-68
2022/03/04 08:59:35;;;;;;;23.27;16.20;;;;;;;;;;5087155;28;20106;-67
2022/03/04 09:02:00;;;;;;;31.10;20.75;;;;;;;;;;5090777;28;20019;-67
2022/03/04 09:04:25;;;;;;;70.05;41.13;;;;;;;;;;5080678;28;20027;-67
2022/03/04 09:06:51;;;;;;;29.92;19.15;;;;;;;;;;5095104;28;20381;-69
2022/03/04 09:09:16;;;;;;;32.00;21.35;;;;;;;;;;5097146;28;20110;-72
2022/03/04 09:11:43;;;;;;;28.65;20.90;;;;;;;;;;5098670;28;20019;-71
2022/03/04 09:14:08;;;;;;;24.30;18.23;;;;;;;;;;5089975;28;20043;-70
2022/03/04 09:16:33;;;;;;;31.45;21.45;;;;;;;;;;5090398;28;20080;-68
2022/03/04 09:18:59;;;;;;;45.60;27.17;;;;;;;;;;5098749;28;20027;-69
2022/03/04 09:21:25;;;;;;;46.53;28.05;;;;;;;;;;5094950;28;20024;-70
2022/03/04 09:23:50;;;;;;;36.15;17.80;;;;;;;;;;5095471;28;20027;-71
2022/03/04 09:26:16;;;;;;;29.80;17.27;;;;;;;;;;5099174;28;20042;-70
2022/03/04 09:28:41;;;;;;;22.10;12.60;;;;;;;;;;5098900;28;20051;-71
2022/03/04 09:31:07;;;;;;;29.10;14.18;;;;;;;;;;5086673;28;20150;-71
2022/03/04 09:33:32;;;;;;;29.27;15.85;;;;;;;;;;5084505;28;20027;-72
2022/03/04 09:36:00;;;;;;;49.95;28.73;;;;;;;;;;5083388;28;20035;-71
2022/03/04 09:38:26;;;;;;;28.55;17.05;;;;;;;;;;5084393;28;20500;-71
2022/03/04 09:40:51;;;;;;;35.58;21.73;;;;;;;;;;5066064;28;20027;-71
2022/03/04 09:43:20;;;;;;;25.70;16.65;;;;;;;;;;5084487;28;20023;-72
2022/03/04 09:45:46;;;;;;;25.00;17.87;;;;;;;;;;5084562;28;20035;-72
2022/03/04 09:48:12;;;;;;;21.60;13.95;;;;;;;;;;5084864;28;20049;-72
2022/03/04 09:50:37;;;;;;;29.73;16.38;;;;;;;;;;5085774;28;20028;-72
2022/03/04 09:53:08;;;;;;;33.65;18.13;;;;;;;;;;5085298;28;20417;-72
2022/03/04 09:55:34;;;;;;;21.52;13.45;;;;;;;;;;5090840;28;20031;-69
2022/03/04 09:57:59;;;;;;;38.17;21.23;;;;;;;;;;5098940;28;20035;-71
2022/03/04 10:00:25;;;;;;;28.25;16.55;;;;;;;;;;5096155;28;20103;-70
2022/03/04 10:02:50;;;;;;;25.23;15.50;;;;;;;;;;5094639;28;20031;-71
2022/03/04 10:05:16;;;;;;;24.23;15.32;;;;;;;;;;5074709;28;20028;-70
2022/03/04 10:07:42;;;;;;;25.13;14.07;;;;;;;;;;5085851;28;20027;-71
2022/03/04 10:10:26;;;;;;;26.30;14.35;;;;;;;;;;5069740;28;20043;-73
2022/03/04 10:12:55;;;;;;;33.67;18.85;;;;;;;;;;5084692;28;20035;-70
2022/03/04 10:15:21;;;;;;;34.53;20.43;;;;;;;;;;5085909;28;20074;-72
2022/03/04 10:17:58;;;;;;;32.95;18.15;;;;;;;;;;5085519;28;20240;-72
2022/03/04 10:20:44;;;;;;;38.72;28.38;;;;;;;;;;5069859;28;20016;-71
2022/03/04 10:23:18;;;;;;;26.77;15.18;;;;;;;;;;5068596;28;20089;-73
2022/03/04 10:25:44;;;;;;;20.40;13.07;;;;;;;;;;5082159;28;20027;-72
2022/03/04 10:28:10;;;;;;;27.15;16.50;;;;;;;;;;5086488;28;20031;-72
2022/03/04 10:30:36;;;;;;;27.52;15.68;;;;;;;;;;5086174;28;20019;-74
2022/03/04 10:33:05;;;;;;;24.85;14.50;;;;;;;;;;5096930;28;20066;-69
2022/03/04 10:35:30;;;;;;;27.55;15.10;;;;;;;;;;5092961;28;20032;-71
2022/03/04 10:37:56;;;;;;;20.13;13.55;;;;;;;;;;5095225;28;20118;-72
2022/03/04 10:40:29;;;;;;;23.95;14.73;;;;;;;;;;5079889;28;20027;-70
2022/03/04 10:42:55;;;;;;;32.42;19.95;;;;;;;;;;5091686;28;20412;-74
2022/03/04 10:45:20;;;;;;;23.48;15.65;;;;;;;;;;5086795;28;20123;-72
2022/03/04 10:48:07;;;;;;;31.75;17.38;;;;;;;;;;5093732;28;20464;-73
2022/03/04 10:50:40;;;;;;;29.80;16.33;;;;;;;;;;5081033;28;20024;-72
2022/03/04 10:53:09;;;;;;;31.40;18.98;;;;;;;;;;5098107;28;20343;-72
2022/03/04 10:55:42;;;;;;;23.80;14.07;;;;;;;;;;5096890;28;20043;-73
2022/03/04 10:58:18;;;;;;;23.45;14.20;;;;;;;;;;5099373;28;20036;-72
2022/03/04 11:00:48;;;;;;;31.85;17.88;;;;;;;;;;5095340;28;21235;-74
2022/03/04 11:03:15;;;;;;;35.47;21.38;;;;;;;;;;5093557;28;20072;-75
2022/03/04 11:05:41;;;;;;;22.27;13.80;;;;;;;;;;5084708;28;20057;-75
2022/03/04 11:08:07;;;;;;;25.27;15.95;;;;;;;;;;5086190;28;20384;-75
2022/03/04 11:10:32;;;;;;;20.70;13.10;;;;;;;;;;5086385;28;20019;-74
2022/03/04 11:12:58;;;;;;;19.17;12.32;;;;;;;;;;5086871;28;20063;-75
2022/03/04 11:15:24;;;;;;;33.90;21.48;;;;;;;;;;5085976;28;20431;-75
2022/03/04 11:17:50;;;;;;;31.83;20.80;;;;;;;;;;5089031;28;20023;-75
2022/03/04 11:20:16;;;;;;;28.35;17.77;;;;;;;;;;5097201;28;20038;-76
2022/03/04 11:22:43;;;;;;;17.75;11.93;;;;;;;;;;5101492;28;20028;-76
2022/03/04 11:25:10;;;;;;;23.13;16.70;;;;;;;;;;5101604;28;20028;-76
2022/03/04 11:27:41;;;;;;;17.48;12.38;;;;;;;;;;5104936;28;20023;-75
2022/03/04 11:30:06;;;;;;;28.42;18.27;;;;;;;;;;5100715;28;20097;-75
2022/03/04 11:32:32;;;;;;;17.52;12.73;;;;;;;;;;5102877;28;20028;-75
2022/03/04 11:34:57;;;;;;;16.98;10.95;;;;;;;;;;5101961;28;20063;-76
2022/03/04 11:37:23;;;;;;;33.67;21.40;;;;;;;;;;5099230;28;20063;-75
2022/03/04 11:40:03;;;;;;;26.67;17.42;;;;;;;;;;5100611;28;20084;-76
2022/03/04 11:42:39;;;;;;;32.25;18.42;;;;;;;;;;5102757;28;20444;-74
2022/03/04 11:45:08;;;;;;;21.17;15.43;;;;;;;;;;5091360;28;20864;-75
2022/03/04 11:47:40;;;;;;;33.08;18.23;;;;;;;;;;5102053;28;20043;-76
2022/03/04 11:50:24;;;;;;;35.92;20.65;;;;;;;;;;5103579;28;20148;-75
2022/03/04 11:52:49;;;;;;;35.30;19.75;;;;;;;;;;5095708;28;20433;-70
2022/03/04 11:55:21;;;;;;;21.92;14.07;;;;;;;;;;5096454;28;20028;-72
2022/03/04 11:57:47;;;;;;;29.05;19.52;;;;;;;;;;5091557;28;20062;-72
2022/03/04 12:00:12;;;;;;;36.30;24.33;;;;;;;;;;5088882;28;20031;-71
2022/03/04 12:02:40;;;;;;;24.40;15.55;;;;;;;;;;5078764;28;20027;-72
2022/03/04 12:05:12;;;;;;;19.60;12.20;;;;;;;;;;5098966;28;20342;-73
2022/03/04 12:07:37;;;;;;;24.42;17.30;;;;;;;;;;5092927;27;20034;-73
2022/03/04 12:10:07;;;;;;;28.30;18.20;;;;;;;;;;5089824;27;20353;-73
2022/03/04 12:12:33;;;;;;;24.88;17.35;;;;;;;;;;5089370;27;20474;-73
2022/03/04 12:15:17;;;;;;;20.17;13.48;;;;;;;;;;5086801;27;20031;-72
2022/03/04 12:17:59;;;;;;;19.67;12.90;;;;;;;;;;5089559;27;20169;-72
2022/03/04 12:20:27;;;;;;;26.50;17.17;;;;;;;;;;5098752;28;20495;-73
2022/03/04 12:22:57;;;;;;;19.13;14.32;;;;;;;;;;5100983;28;20028;-72
2022/03/04 12:25:22;;;;;;;;;;;;;;;;;;5092564;28;20112;-74
2022/03/04 12:27:53;;;;;;;20.73;12.33;;;;;;;;;;5100835;28;19915;-72
2022/03/04 12:30:22;;;;;;;16.73;12.13;;;;;;;;;;5100718;28;20023;-74
2022/03/04 12:32:51;;;;;;;34.28;15.43;;;;;;;;;;5094632;28;20477;-73
2022/03/04 12:35:17;;;;;;;27.15;18.80;;;;;;;;;;5092897;28;20036;-73
2022/03/04 12:37:42;;;;;;;42.03;23.75;;;;;;;;;;5100533;28;20051;-73
2022/03/04 12:40:08;;;;;;;27.55;15.30;;;;;;;;;;5099332;28;20028;-74
2022/03/04 12:42:34;;;;;;;33.50;18.98;;;;;;;;;;5098970;28;20445;-74
2022/03/04 12:44:59;;;;;;;26.63;17.10;;;;;;;;;;5103124;28;20031;-73
2022/03/04 12:47:24;;;;;;;21.35;13.90;;;;;;;;;;5102581;28;20051;-74
2022/03/04 12:49:52;;;;;;;29.13;18.63;;;;;;;;;;5098252;28;20043;-73
2022/03/04 12:52:20;;;;;;;43.28;25.50;;;;;;;;;;5098047;28;20031;-73
2022/03/04 12:54:46;;;;;;;28.63;18.58;;;;;;;;;;5099679;28;20074;-72
2022/03/04 12:57:11;;;;;;;27.27;16.77;;;;;;;;;;5093987;28;20885;-72
2022/03/04 12:59:46;;;;;;;33.72;18.63;;;;;;;;;;5084625;28;20019;-72
2022/03/04 13:02:12;;;;;;;21.45;15.32;;;;;;;;;;5093300;28;20039;-72
2022/03/04 13:04:37;;;;;;;22.42;15.52;;;;;;;;;;5088346;28;20023;-74
2022/03/04 13:07:03;;;;;;;32.15;19.15;;;;;;;;;;5087187;28;20335;-73
2022/03/04 13:09:28;;;;;;;32.33;19.38;;;;;;;;;;5088363;28;20098;-72
2022/03/04 13:11:54;;;;;;;37.30;22.95;;;;;;;;;;5097381;28;20055;-71
2022/03/04 13:14:22;;;;;;;24.13;15.02;;;;;;;;;;5101852;28;20057;-74
2022/03/04 13:16:47;;;;;;;30.08;17.85;;;;;;;;;;5099363;28;20096;-72
2022/03/04 13:19:16;;;;;;;39.40;20.88;;;;;;;;;;5100343;28;20032;-72
2022/03/04 13:21:49;;;;;;;26.50;17.23;;;;;;;;;;5100113;28;20100;-72
2022/03/04 13:24:14;;;;;;;33.28;20.65;;;;;;;;;;5098059;28;20031;-72
2022/03/04 13:26:53;;;;;;;38.53;23.17;;;;;;;;;;5100071;28;20076;-73
2022/03/04 13:29:19;;;;;;;24.10;17.13;;;;;;;;;;5099719;28;20093;-72
2022/03/04 13:31:45;;;;;;;32.45;19.52;;;;;;;;;;5100209;28;20244;-72
2022/03/04 13:34:11;;;;;;;29.02;19.52;;;;;;;;;;5099036;28;20116;-72
2022/03/04 13:36:37;;;;;;;27.38;17.00;;;;;;;;;;5099652;28;20122;-71
2022/03/04 13:39:10;;;;;;;36.60;21.08;;;;;;;;;;5096271;28;20470;-72
2022/03/04 13:41:37;;;;;;;35.00;19.27;;;;;;;;;;5098794;28;20031;-72
2022/03/04 13:44:05;;;;;;;27.05;16.98;;;;;;;;;;5100385;28;20022;-71
2022/03/04 13:46:31;;;;;;;17.67;11.60;;;;;;;;;;5096344;28;20016;-72
2022/03/04 13:49:00;;;;;;;20.58;12.77;;;;;;;;;;5097198;28;20061;-72
2022/03/04 13:51:25;;;;;;;25.85;14.80;;;;;;;;;;5099441;28;20023;-72
2022/03/04 13:53:58;;;;;;;21.63;13.00;;;;;;;;;;5097243;28;20028;-72
2022/03/04 13:56:24;;;;;;;21.40;13.23;;;;;;;;;;5098260;28;20046;-72
2022/03/04 13:58:57;;;;;;;30.02;16.73;;;;;;;;;;5097408;28;20020;-71
2022/03/04 14:01:22;;;;;;;29.45;16.88;;;;;;;;;;5097643;28;20422;-72
2022/03/04 14:03:48;;;;;;;39.75;20.63;;;;;;;;;;5100147;28;20020;-72
2022/03/04 14:06:14;;;;;;;35.63;19.63;;;;;;;;;;5099707;28;20031;-71
2022/03/04 14:08:40;;;;;;;26.77;16.92;;;;;;;;;;5098559;28;20020;-72